sensor_id;sensor_type;location;lat;lon;timestamp;temperature;humidity
26164;DHT22;13914;48.178;11.716;2023-07-31T00:01:44;18.50;7.50
26164;DHT22;13914;48.178;11.716;2023-07-31T00:04:09;18.50;7.50
26164;DHT22;13914;48.178;11.716;2023-07-31T00:06:35;18.50;7.60
26164;DHT22;13914;48.178;11.716;2023-07-31T00:09:00;18.50;7.60
26164;DHT22;13914;48.178;11.716;2023-07-31T00:11:26;18.50;7.60
26164;DHT22;13914;48.178;11.716;2023-07-31T00:13:52;18.40;7.70
26164;DHT22;13914;48.178;11.716;2023-07-31T00:16:19;18.40;7.70
26164;DHT22;13914;48.178;11.716;2023-07-31T00:18:44;18.40;7.70
26164;DHT22;13914;48.178;11.716;2023-07-31T00:21:10;18.40;7.70
26164;DHT22;13914;48.178;11.716;2023-07-31T00:23:36;18.40;7.80
26164;DHT22;13914;48.178;11.716;2023-07-31T00:26:01;18.40;7.80
26164;DHT22;13914;48.178;11.716;2023-07-31T00:28:27;18.30;7.70
26164;DHT22;13914;48.178;11.716;2023-07-31T00:30:54;18.40;7.90
26164;DHT22;13914;48.178;11.716;2023-07-31T00:33:19;18.30;7.80
26164;DHT22;13914;48.178;11.716;2023-07-31T00:35:45;18.30;7.80
26164;DHT22;13914;48.178;11.716;2023-07-31T00:38:11;18.30;7.80
26164;DHT22;13914;48.178;11.716;2023-07-31T00:40:36;18.20;7.90
26164;DHT22;13914;48.178;11.716;2023-07-31T00:43:04;18.20;7.90
26164;DHT22;13914;48.178;11.716;2023-07-31T00:45:30;18.20;7.90
26164;DHT22;13914;48.178;11.716;2023-07-31T00:47:56;18.20;7.90
26164;DHT22;13914;48.178;11.716;2023-07-31T00:50:23;18.20;7.90
26164;DHT22;13914;48.178;11.716;2023-07-31T00:52:49;18.20;8.10
26164;DHT22;13914;48.178;11.716;2023-07-31T00:55:15;18.20;8.00
26164;DHT22;13914;48.178;11.716;2023-07-31T00:57:41;18.10;8.10
26164;DHT22;13914;48.178;11.716;2023-07-31T01:00:07;18.10;8.10
26164;DHT22;13914;48.178;11.716;2023-07-31T01:02:33;18.10;8.10
26164;DHT22;13914;48.178;11.716;2023-07-31T01:04:59;18.10;8.20
26164;DHT22;13914;48.178;11.716;2023-07-31T01:10:23;18.00;8.10
26164;DHT22;13914;48.178;11.716;2023-07-31T01:12:52;18.00;8.10
26164;DHT22;13914;48.178;11.716;2023-07-31T01:15:18;18.00;8.10
26164;DHT22;13914;48.178;11.716;2023-07-31T01:17:44;18.00;8.20
26164;DHT22;13914;48.178;11.716;2023-07-31T01:20:12;18.00;8.20
26164;DHT22;13914;48.178;11.716;2023-07-31T01:28:07;17.90;8.30
26164;DHT22;13914;48.178;11.716;2023-07-31T01:30:38;17.90;8.30
26164;DHT22;13914;48.178;11.716;2023-07-31T01:33:07;17.90;8.90
26164;DHT22;13914;48.178;11.716;2023-07-31T01:35:34;17.90;8.30
26164;DHT22;13914;48.178;11.716;2023-07-31T01:38:00;17.80;8.30
26164;DHT22;13914;48.178;11.716;2023-07-31T01:40:25;17.80;8.30
26164;DHT22;13914;48.178;11.716;2023-07-31T01:42:51;17.80;8.30
26164;DHT22;13914;48.178;11.716;2023-07-31T01:45:17;17.80;8.40
26164;DHT22;13914;48.178;11.716;2023-07-31T01:47:42;17.80;8.30
26164;DHT22;13914;48.178;11.716;2023-07-31T01:50:08;17.80;8.40
26164;DHT22;13914;48.178;11.716;2023-07-31T01:52:34;17.80;8.40
26164;DHT22;13914;48.178;11.716;2023-07-31T01:55:00;17.80;8.50
26164;DHT22;13914;48.178;11.716;2023-07-31T01:57:26;17.80;8.50
26164;DHT22;13914;48.178;11.716;2023-07-31T01:59:51;17.70;8.50
26164;DHT22;13914;48.178;11.716;2023-07-31T02:02:19;17.70;8.50
26164;DHT22;13914;48.178;11.716;2023-07-31T02:04:45;17.70;8.50
26164;DHT22;13914;48.178;11.716;2023-07-31T02:07:10;17.70;8.50
26164;DHT22;13914;48.178;11.716;2023-07-31T02:09:36;17.70;8.50
26164;DHT22;13914;48.178;11.716;2023-07-31T02:12:02;17.70;8.60
26164;DHT22;13914;48.178;11.716;2023-07-31T02:14:27;17.70;8.90
26164;DHT22;13914;48.178;11.716;2023-07-31T02:16:53;17.70;8.60
26164;DHT22;13914;48.178;11.716;2023-07-31T02:19:19;17.70;8.60
26164;DHT22;13914;48.178;11.716;2023-07-31T02:21:44;17.60;8.60
26164;DHT22;13914;48.178;11.716;2023-07-31T02:24:10;17.60;8.60
26164;DHT22;13914;48.178;11.716;2023-07-31T02:26:36;17.60;8.60
26164;DHT22;13914;48.178;11.716;2023-07-31T02:29:01;17.60;8.70
26164;DHT22;13914;48.178;11.716;2023-07-31T02:31:27;17.60;8.60
26164;DHT22;13914;48.178;11.716;2023-07-31T02:33:53;17.60;8.70
26164;DHT22;13914;48.178;11.716;2023-07-31T02:36:18;17.50;8.60
26164;DHT22;13914;48.178;11.716;2023-07-31T02:38:44;17.50;8.60
26164;DHT22;13914;48.178;11.716;2023-07-31T02:41:10;17.50;8.60
26164;DHT22;13914;48.178;11.716;2023-07-31T02:43:35;17.50;8.70
26164;DHT22;13914;48.178;11.716;2023-07-31T02:46:01;17.50;8.70
26164;DHT22;13914;48.178;11.716;2023-07-31T02:48:27;17.50;8.70
26164;DHT22;13914;48.178;11.716;2023-07-31T02:50:52;17.50;8.80
26164;DHT22;13914;48.178;11.716;2023-07-31T02:53:18;17.50;8.80
26164;DHT22;13914;48.178;11.716;2023-07-31T02:55:44;17.50;8.80
26164;DHT22;13914;48.178;11.716;2023-07-31T02:58:09;17.40;8.90
26164;DHT22;13914;48.178;11.716;2023-07-31T03:00:35;17.40;8.90
26164;DHT22;13914;48.178;11.716;2023-07-31T03:03:01;17.40;8.90
26164;DHT22;13914;48.178;11.716;2023-07-31T03:05:26;17.40;8.90
26164;DHT22;13914;48.178;11.716;2023-07-31T03:07:52;17.40;9.00
26164;DHT22;13914;48.178;11.716;2023-07-31T03:10:18;17.40;8.90
26164;DHT22;13914;48.178;11.716;2023-07-31T03:12:46;17.30;8.90
26164;DHT22;13914;48.178;11.716;2023-07-31T03:15:12;17.30;8.90
26164;DHT22;13914;48.178;11.716;2023-07-31T03:17:38;17.30;8.90
26164;DHT22;13914;48.178;11.716;2023-07-31T03:20:04;17.30;9.00
26164;DHT22;13914;48.178;11.716;2023-07-31T03:22:30;17.30;8.90
26164;DHT22;13914;48.178;11.716;2023-07-31T03:24:55;17.30;9.00
26164;DHT22;13914;48.178;11.716;2023-07-31T03:27:21;17.30;9.00
26164;DHT22;13914;48.178;11.716;2023-07-31T03:29:47;17.30;9.00
26164;DHT22;13914;48.178;11.716;2023-07-31T03:32:15;17.30;9.00
26164;DHT22;13914;48.178;11.716;2023-07-31T03:34:40;17.20;8.90
26164;DHT22;13914;48.178;11.716;2023-07-31T03:37:06;17.30;9.00
26164;DHT22;13914;48.178;11.716;2023-07-31T03:39:31;17.20;9.00
26164;DHT22;13914;48.178;11.716;2023-07-31T03:41:57;17.20;9.00
26164;DHT22;13914;48.178;11.716;2023-07-31T03:44:23;17.20;9.10
26164;DHT22;13914;48.178;11.716;2023-07-31T03:46:48;17.20;9.10
26164;DHT22;13914;48.178;11.716;2023-07-31T03:49:14;17.10;9.00
26164;DHT22;13914;48.178;11.716;2023-07-31T03:51:40;17.10;9.10
26164;DHT22;13914;48.178;11.716;2023-07-31T03:54:06;17.20;9.10
26164;DHT22;13914;48.178;11.716;2023-07-31T03:56:33;17.10;9.00
26164;DHT22;13914;48.178;11.716;2023-07-31T03:58:59;17.10;9.10
26164;DHT22;13914;48.178;11.716;2023-07-31T04:01:24;17.10;9.10
26164;DHT22;13914;48.178;11.716;2023-07-31T04:03:50;17.00;9.30
26164;DHT22;13914;48.178;11.716;2023-07-31T04:06:16;17.00;9.20
26164;DHT22;13914;48.178;11.716;2023-07-31T04:08:44;17.00;9.20
26164;DHT22;13914;48.178;11.716;2023-07-31T04:11:10;17.00;9.10
26164;DHT22;13914;48.178;11.716;2023-07-31T04:13:37;17.00;9.20
26164;DHT22;13914;48.178;11.716;2023-07-31T04:16:02;17.00;9.10
26164;DHT22;13914;48.178;11.716;2023-07-31T04:18:28;16.90;9.10
26164;DHT22;13914;48.178;11.716;2023-07-31T04:20:56;16.90;9.20
26164;DHT22;13914;48.178;11.716;2023-07-31T04:23:23;16.90;9.20
26164;DHT22;13914;48.178;11.716;2023-07-31T04:25:50;16.90;9.20
26164;DHT22;13914;48.178;11.716;2023-07-31T04:28:16;16.90;9.20
26164;DHT22;13914;48.178;11.716;2023-07-31T04:30:41;16.80;9.10
26164;DHT22;13914;48.178;11.716;2023-07-31T04:33:07;16.90;9.20
26164;DHT22;13914;48.178;11.716;2023-07-31T04:35:33;16.90;9.20
26164;DHT22;13914;48.178;11.716;2023-07-31T04:37:58;16.90;9.30
26164;DHT22;13914;48.178;11.716;2023-07-31T04:40:24;16.80;9.20
26164;DHT22;13914;48.178;11.716;2023-07-31T04:42:50;16.90;9.30
26164;DHT22;13914;48.178;11.716;2023-07-31T04:45:15;16.90;9.10
26164;DHT22;13914;48.178;11.716;2023-07-31T04:47:41;16.80;9.10
26164;DHT22;13914;48.178;11.716;2023-07-31T04:50:07;16.80;9.20
26164;DHT22;13914;48.178;11.716;2023-07-31T04:52:33;16.80;9.30
26164;DHT22;13914;48.178;11.716;2023-07-31T04:54:58;16.80;9.30
26164;DHT22;13914;48.178;11.716;2023-07-31T04:57:24;16.80;9.30
26164;DHT22;13914;48.178;11.716;2023-07-31T04:59:50;16.80;9.30
26164;DHT22;13914;48.178;11.716;2023-07-31T05:02:15;16.80;9.30
26164;DHT22;13914;48.178;11.716;2023-07-31T05:04:41;16.80;9.30
26164;DHT22;13914;48.178;11.716;2023-07-31T05:07:07;16.80;9.40
26164;DHT22;13914;48.178;11.716;2023-07-31T05:09:32;16.80;9.30
26164;DHT22;13914;48.178;11.716;2023-07-31T05:11:58;16.80;9.40
26164;DHT22;13914;48.178;11.716;2023-07-31T05:14:24;16.80;9.40
26164;DHT22;13914;48.178;11.716;2023-07-31T05:16:49;16.80;9.50
26164;DHT22;13914;48.178;11.716;2023-07-31T05:19:15;16.80;9.40
26164;DHT22;13914;48.178;11.716;2023-07-31T05:21:41;16.80;9.60
26164;DHT22;13914;48.178;11.716;2023-07-31T05:24:06;16.80;9.50
26164;DHT22;13914;48.178;11.716;2023-07-31T05:26:32;16.80;9.60
26164;DHT22;13914;48.178;11.716;2023-07-31T05:28:58;16.90;9.60
26164;DHT22;13914;48.178;11.716;2023-07-31T05:31:23;16.90;9.60
26164;DHT22;13914;48.178;11.716;2023-07-31T05:33:50;16.90;9.80
26164;DHT22;13914;48.178;11.716;2023-07-31T05:36:16;16.90;10.30
26164;DHT22;13914;48.178;11.716;2023-07-31T05:38:42;16.90;9.90
26164;DHT22;13914;48.178;11.716;2023-07-31T05:41:11;16.90;9.80
26164;DHT22;13914;48.178;11.716;2023-07-31T05:43:37;17.00;9.70
26164;DHT22;13914;48.178;11.716;2023-07-31T05:46:02;17.00;9.80
26164;DHT22;13914;48.178;11.716;2023-07-31T05:48:28;16.90;9.70
26164;DHT22;13914;48.178;11.716;2023-07-31T05:50:54;17.00;9.70
26164;DHT22;13914;48.178;11.716;2023-07-31T05:53:20;17.00;10.00
26164;DHT22;13914;48.178;11.716;2023-07-31T05:55:45;17.10;9.80
26164;DHT22;13914;48.178;11.716;2023-07-31T05:58:11;17.10;9.80
26164;DHT22;13914;48.178;11.716;2023-07-31T06:00:36;17.10;9.80
26164;DHT22;13914;48.178;11.716;2023-07-31T06:03:02;17.10;9.80
26164;DHT22;13914;48.178;11.716;2023-07-31T06:05:28;17.20;9.90
26164;DHT22;13914;48.178;11.716;2023-07-31T06:07:55;17.20;9.80
26164;DHT22;13914;48.178;11.716;2023-07-31T06:10:21;17.20;9.90
26164;DHT22;13914;48.178;11.716;2023-07-31T06:12:47;17.30;10.00
26164;DHT22;13914;48.178;11.716;2023-07-31T06:15:12;17.30;10.00
26164;DHT22;13914;48.178;11.716;2023-07-31T06:17:38;17.30;10.00
26164;DHT22;13914;48.178;11.716;2023-07-31T06:20:04;17.40;10.00
26164;DHT22;13914;48.178;11.716;2023-07-31T06:22:31;17.40;10.10
26164;DHT22;13914;48.178;11.716;2023-07-31T06:24:57;17.40;10.00
26164;DHT22;13914;48.178;11.716;2023-07-31T06:27:23;17.50;10.00
26164;DHT22;13914;48.178;11.716;2023-07-31T06:29:48;17.60;10.10
26164;DHT22;13914;48.178;11.716;2023-07-31T06:32:14;17.60;9.90
26164;DHT22;13914;48.178;11.716;2023-07-31T06:34:40;17.70;10.00
26164;DHT22;13914;48.178;11.716;2023-07-31T06:37:05;17.70;9.90
26164;DHT22;13914;48.178;11.716;2023-07-31T06:39:31;17.70;10.00
26164;DHT22;13914;48.178;11.716;2023-07-31T06:41:57;17.80;10.20
26164;DHT22;13914;48.178;11.716;2023-07-31T06:44:22;17.80;10.10
26164;DHT22;13914;48.178;11.716;2023-07-31T06:46:48;17.90;10.10
26164;DHT22;13914;48.178;11.716;2023-07-31T06:49:14;17.90;10.10
26164;DHT22;13914;48.178;11.716;2023-07-31T06:51:42;18.00;10.20
26164;DHT22;13914;48.178;11.716;2023-07-31T06:54:09;18.00;10.10
26164;DHT22;13914;48.178;11.716;2023-07-31T06:56:35;18.10;10.10
26164;DHT22;13914;48.178;11.716;2023-07-31T06:59:00;18.20;10.10
26164;DHT22;13914;48.178;11.716;2023-07-31T07:01:26;18.20;10.20
26164;DHT22;13914;48.178;11.716;2023-07-31T07:03:53;18.20;10.10
26164;DHT22;13914;48.178;11.716;2023-07-31T07:06:18;18.30;10.20
26164;DHT22;13914;48.178;11.716;2023-07-31T07:08:44;18.30;10.20
26164;DHT22;13914;48.178;11.716;2023-07-31T07:11:10;18.50;10.20
26164;DHT22;13914;48.178;11.716;2023-07-31T07:13:35;18.50;10.30
26164;DHT22;13914;48.178;11.716;2023-07-31T07:16:01;18.50;10.20
26164;DHT22;13914;48.178;11.716;2023-07-31T07:18:27;18.60;10.30
26164;DHT22;13914;48.178;11.716;2023-07-31T07:20:53;18.70;10.10
26164;DHT22;13914;48.178;11.716;2023-07-31T07:23:19;18.70;10.10
26164;DHT22;13914;48.178;11.716;2023-07-31T07:25:46;18.70;10.10
26164;DHT22;13914;48.178;11.716;2023-07-31T07:28:12;18.90;10.20
26164;DHT22;13914;48.178;11.716;2023-07-31T07:30:38;18.90;10.10
26164;DHT22;13914;48.178;11.716;2023-07-31T07:33:04;18.90;9.90
26164;DHT22;13914;48.178;11.716;2023-07-31T07:35:30;19.00;10.00
26164;DHT22;13914;48.178;11.716;2023-07-31T07:37:58;19.10;10.00
26164;DHT22;13914;48.178;11.716;2023-07-31T07:40:24;19.10;10.00
26164;DHT22;13914;48.178;11.716;2023-07-31T07:42:50;19.20;10.00
26164;DHT22;13914;48.178;11.716;2023-07-31T07:45:15;19.20;10.00
26164;DHT22;13914;48.178;11.716;2023-07-31T07:47:41;19.30;10.00
26164;DHT22;13914;48.178;11.716;2023-07-31T07:50:07;19.30;10.00
26164;DHT22;13914;48.178;11.716;2023-07-31T07:52:33;19.40;9.90
26164;DHT22;13914;48.178;11.716;2023-07-31T07:54:59;19.40;10.00
26164;DHT22;13914;48.178;11.716;2023-07-31T07:57:25;19.50;9.90
26164;DHT22;13914;48.178;11.716;2023-07-31T07:59:51;19.60;9.90
26164;DHT22;13914;48.178;11.716;2023-07-31T08:02:17;19.70;9.90
26164;DHT22;13914;48.178;11.716;2023-07-31T08:04:43;19.70;9.90
26164;DHT22;13914;48.178;11.716;2023-07-31T08:07:10;19.80;9.80
26164;DHT22;13914;48.178;11.716;2023-07-31T08:09:37;19.90;9.90
26164;DHT22;13914;48.178;11.716;2023-07-31T08:12:03;20.00;9.90
26164;DHT22;13914;48.178;11.716;2023-07-31T08:14:29;20.10;9.80
26164;DHT22;13914;48.178;11.716;2023-07-31T08:16:55;20.10;9.90
26164;DHT22;13914;48.178;11.716;2023-07-31T08:19:21;20.30;9.90
26164;DHT22;13914;48.178;11.716;2023-07-31T08:21:46;20.30;10.00
26164;DHT22;13914;48.178;11.716;2023-07-31T08:24:12;20.50;9.90
26164;DHT22;13914;48.178;11.716;2023-07-31T08:26:38;20.60;9.80
26164;DHT22;13914;48.178;11.716;2023-07-31T08:29:03;20.70;9.80
26164;DHT22;13914;48.178;11.716;2023-07-31T08:31:29;20.80;9.80
26164;DHT22;13914;48.178;11.716;2023-07-31T08:33:55;20.90;9.60
26164;DHT22;13914;48.178;11.716;2023-07-31T08:36:21;21.00;9.50
26164;DHT22;13914;48.178;11.716;2023-07-31T08:38:47;21.10;9.30
26164;DHT22;13914;48.178;11.716;2023-07-31T08:41:13;21.20;9.50
26164;DHT22;13914;48.178;11.716;2023-07-31T08:43:38;21.30;9.10
26164;DHT22;13914;48.178;11.716;2023-07-31T08:46:04;21.40;9.30
26164;DHT22;13914;48.178;11.716;2023-07-31T08:48:30;21.50;9.10
26164;DHT22;13914;48.178;11.716;2023-07-31T08:50:56;21.60;9.00
26164;DHT22;13914;48.178;11.716;2023-07-31T08:53:22;21.60;8.90
26164;DHT22;13914;48.178;11.716;2023-07-31T08:55:48;21.70;8.70
26164;DHT22;13914;48.178;11.716;2023-07-31T08:58:14;21.80;8.50
26164;DHT22;13914;48.178;11.716;2023-07-31T09:00:41;21.80;8.80
26164;DHT22;13914;48.178;11.716;2023-07-31T09:03:10;21.90;8.20
26164;DHT22;13914;48.178;11.716;2023-07-31T09:05:40;22.00;8.40
26164;DHT22;13914;48.178;11.716;2023-07-31T09:08:07;22.00;8.10
26164;DHT22;13914;48.178;11.716;2023-07-31T09:10:34;22.10;8.10
26164;DHT22;13914;48.178;11.716;2023-07-31T09:13:00;22.10;8.10
26164;DHT22;13914;48.178;11.716;2023-07-31T09:15:27;22.20;7.70
26164;DHT22;13914;48.178;11.716;2023-07-31T09:17:59;22.20;7.60
26164;DHT22;13914;48.178;11.716;2023-07-31T09:20:26;22.20;6.90
26164;DHT22;13914;48.178;11.716;2023-07-31T09:22:52;22.30;6.90
26164;DHT22;13914;48.178;11.716;2023-07-31T09:27:50;22.30;6.80
26164;DHT22;13914;48.178;11.716;2023-07-31T09:30:17;22.40;7.20
26164;DHT22;13914;48.178;11.716;2023-07-31T09:32:43;22.40;6.40
26164;DHT22;13914;48.178;11.716;2023-07-31T09:35:27;22.40;6.80
26164;DHT22;13914;48.178;11.716;2023-07-31T09:37:58;22.50;7.00
26164;DHT22;13914;48.178;11.716;2023-07-31T09:40:31;22.50;6.90
26164;DHT22;13914;48.178;11.716;2023-07-31T09:43:11;22.60;6.60
26164;DHT22;13914;48.178;11.716;2023-07-31T09:45:54;22.60;5.80
26164;DHT22;13914;48.178;11.716;2023-07-31T09:48:22;22.60;6.40
26164;DHT22;13914;48.178;11.716;2023-07-31T09:50:51;22.70;6.90
26164;DHT22;13914;48.178;11.716;2023-07-31T09:53:16;22.70;6.90
26164;DHT22;13914;48.178;11.716;2023-07-31T09:55:42;22.80;6.90
26164;DHT22;13914;48.178;11.716;2023-07-31T09:58:09;22.80;6.30
26164;DHT22;13914;48.178;11.716;2023-07-31T10:00:37;22.80;6.50
26164;DHT22;13914;48.178;11.716;2023-07-31T10:03:07;22.90;6.70
26164;DHT22;13914;48.178;11.716;2023-07-31T10:05:34;23.00;6.10
26164;DHT22;13914;48.178;11.716;2023-07-31T10:08:01;23.00;5.70
26164;DHT22;13914;48.178;11.716;2023-07-31T10:10:27;23.10;5.90
26164;DHT22;13914;48.178;11.716;2023-07-31T10:12:54;23.20;6.20
26164;DHT22;13914;48.178;11.716;2023-07-31T10:15:21;23.20;6.40
26164;DHT22;13914;48.178;11.716;2023-07-31T10:17:47;23.40;5.20
26164;DHT22;13914;48.178;11.716;2023-07-31T10:20:14;23.40;6.10
26164;DHT22;13914;48.178;11.716;2023-07-31T10:22:42;23.50;6.10
26164;DHT22;13914;48.178;11.716;2023-07-31T10:25:14;23.60;6.40
26164;DHT22;13914;48.178;11.716;2023-07-31T10:27:40;23.70;5.60
26164;DHT22;13914;48.178;11.716;2023-07-31T10:30:11;23.80;6.00
26164;DHT22;13914;48.178;11.716;2023-07-31T10:32:38;23.90;6.10
26164;DHT22;13914;48.178;11.716;2023-07-31T10:35:06;24.00;6.00
26164;DHT22;13914;48.178;11.716;2023-07-31T10:37:37;24.10;4.80
26164;DHT22;13914;48.178;11.716;2023-07-31T10:40:11;24.20;5.70
26164;DHT22;13914;48.178;11.716;2023-07-31T10:42:51;24.30;6.00
26164;DHT22;13914;48.178;11.716;2023-07-31T10:45:32;24.40;4.40
26164;DHT22;13914;48.178;11.716;2023-07-31T10:48:03;24.50;5.60
26164;DHT22;13914;48.178;11.716;2023-07-31T10:50:33;24.50;5.90
26164;DHT22;13914;48.178;11.716;2023-07-31T10:53:02;24.70;5.90
26164;DHT22;13914;48.178;11.716;2023-07-31T10:55:33;24.70;5.60
26164;DHT22;13914;48.178;11.716;2023-07-31T10:58:06;24.80;4.80
26164;DHT22;13914;48.178;11.716;2023-07-31T11:00:33;24.90;5.10
26164;DHT22;13914;48.178;11.716;2023-07-31T11:03:03;25.00;5.30
26164;DHT22;13914;48.178;11.716;2023-07-31T11:08:33;25.10;5.40
26164;DHT22;13914;48.178;11.716;2023-07-31T11:13:31;25.30;4.30
26164;DHT22;13914;48.178;11.716;2023-07-31T11:16:05;25.30;3.20
26164;DHT22;13914;48.178;11.716;2023-07-31T11:18:30;25.40;2.20
26164;DHT22;13914;48.178;11.716;2023-07-31T11:20:56;25.50;3.10
26164;DHT22;13914;48.178;11.716;2023-07-31T11:23:22;25.50;3.50
26164;DHT22;13914;48.178;11.716;2023-07-31T11:25:48;25.60;3.30
26164;DHT22;13914;48.178;11.716;2023-07-31T11:28:16;25.70;2.00
26164;DHT22;13914;48.178;11.716;2023-07-31T11:30:42;25.80;3.60
26164;DHT22;13914;48.178;11.716;2023-07-31T11:33:09;25.80;3.70
26164;DHT22;13914;48.178;11.716;2023-07-31T11:35:40;25.90;3.80
26164;DHT22;13914;48.178;11.716;2023-07-31T11:38:25;26.00;3.60
26164;DHT22;13914;48.178;11.716;2023-07-31T11:40:59;26.00;4.00
26164;DHT22;13914;48.178;11.716;2023-07-31T11:43:31;26.10;3.90
26164;DHT22;13914;48.178;11.716;2023-07-31T11:45:58;26.20;4.00
26164;DHT22;13914;48.178;11.716;2023-07-31T11:48:25;26.30;3.90
26164;DHT22;13914;48.178;11.716;2023-07-31T11:50:53;26.40;3.80
26164;DHT22;13914;48.178;11.716;2023-07-31T11:53:30;26.40;3.60
26164;DHT22;13914;48.178;11.716;2023-07-31T11:55:59;26.40;2.80
26164;DHT22;13914;48.178;11.716;2023-07-31T11:58:25;26.50;3.70
26164;DHT22;13914;48.178;11.716;2023-07-31T12:00:51;26.60;3.70
26164;DHT22;13914;48.178;11.716;2023-07-31T12:03:18;26.60;3.60
26164;DHT22;13914;48.178;11.716;2023-07-31T12:05:44;26.70;3.30
26164;DHT22;13914;48.178;11.716;2023-07-31T12:08:10;26.70;3.00
26164;DHT22;13914;48.178;11.716;2023-07-31T12:10:37;26.90;3.20
26164;DHT22;13914;48.178;11.716;2023-07-31T12:15:45;27.00;3.30
26164;DHT22;13914;48.178;11.716;2023-07-31T12:18:14;27.10;3.40
26164;DHT22;13914;48.178;11.716;2023-07-31T12:20:44;27.10;3.00
26164;DHT22;13914;48.178;11.716;2023-07-31T12:23:15;27.10;3.20
26164;DHT22;13914;48.178;11.716;2023-07-31T12:25:43;27.20;1.80
26164;DHT22;13914;48.178;11.716;2023-07-31T12:28:08;27.20;2.20
26164;DHT22;13914;48.178;11.716;2023-07-31T12:30:37;27.20;2.70
26164;DHT22;13914;48.178;11.716;2023-07-31T12:33:05;27.20;2.20
26164;DHT22;13914;48.178;11.716;2023-07-31T12:35:41;27.30;2.60
26164;DHT22;13914;48.178;11.716;2023-07-31T12:38:08;27.30;2.10
26164;DHT22;13914;48.178;11.716;2023-07-31T12:40:36;27.30;2.00
26164;DHT22;13914;48.178;11.716;2023-07-31T12:43:03;27.40;2.70
26164;DHT22;13914;48.178;11.716;2023-07-31T12:45:31;27.40;1.00
26164;DHT22;13914;48.178;11.716;2023-07-31T12:47:58;27.50;2.10
26164;DHT22;13914;48.178;11.716;2023-07-31T12:50:24;27.50;1.50
26164;DHT22;13914;48.178;11.716;2023-07-31T12:52:51;27.50;2.30
26164;DHT22;13914;48.178;11.716;2023-07-31T12:55:18;27.60;2.20
26164;DHT22;13914;48.178;11.716;2023-07-31T12:57:44;27.60;2.30
26164;DHT22;13914;48.178;11.716;2023-07-31T13:00:10;27.60;1.70
26164;DHT22;13914;48.178;11.716;2023-07-31T13:02:36;27.70;2.00
26164;DHT22;13914;48.178;11.716;2023-07-31T13:05:02;27.70;1.90
26164;DHT22;13914;48.178;11.716;2023-07-31T13:07:28;27.70;2.10
26164;DHT22;13914;48.178;11.716;2023-07-31T13:09:53;27.80;2.30
26164;DHT22;13914;48.178;11.716;2023-07-31T13:12:19;27.80;2.40
26164;DHT22;13914;48.178;11.716;2023-07-31T13:14:44;27.80;1.30
26164;DHT22;13914;48.178;11.716;2023-07-31T13:17:10;27.90;1.40
26164;DHT22;13914;48.178;11.716;2023-07-31T13:19:36;27.90;1.90
26164;DHT22;13914;48.178;11.716;2023-07-31T13:22:01;27.90;1.80
26164;DHT22;13914;48.178;11.716;2023-07-31T13:24:27;27.90;1.90
26164;DHT22;13914;48.178;11.716;2023-07-31T13:26:53;28.00;1.60
26164;DHT22;13914;48.178;11.716;2023-07-31T13:29:18;28.00;1.00
26164;DHT22;13914;48.178;11.716;2023-07-31T13:31:44;28.00;1.00
26164;DHT22;13914;48.178;11.716;2023-07-31T13:34:10;28.00;1.00
26164;DHT22;13914;48.178;11.716;2023-07-31T13:36:35;28.00;1.00
26164;DHT22;13914;48.178;11.716;2023-07-31T13:39:02;28.00;1.00
26164;DHT22;13914;48.178;11.716;2023-07-31T13:41:28;28.00;1.00
26164;DHT22;13914;48.178;11.716;2023-07-31T13:43:54;28.00;1.00
26164;DHT22;13914;48.178;11.716;2023-07-31T13:46:19;28.00;1.00
26164;DHT22;13914;48.178;11.716;2023-07-31T13:48:45;28.00;1.00
26164;DHT22;13914;48.178;11.716;2023-07-31T13:51:10;27.90;1.00
26164;DHT22;13914;48.178;11.716;2023-07-31T13:53:36;27.90;1.00
26164;DHT22;13914;48.178;11.716;2023-07-31T13:56:02;27.90;1.00
26164;DHT22;13914;48.178;11.716;2023-07-31T13:58:28;27.90;1.00
26164;DHT22;13914;48.178;11.716;2023-07-31T14:00:53;27.90;1.00
26164;DHT22;13914;48.178;11.716;2023-07-31T14:03:19;27.90;1.00
26164;DHT22;13914;48.178;11.716;2023-07-31T14:05:45;27.90;1.00
26164;DHT22;13914;48.178;11.716;2023-07-31T14:08:10;27.80;1.00
26164;DHT22;13914;48.178;11.716;2023-07-31T14:10:36;27.80;1.00
26164;DHT22;13914;48.178;11.716;2023-07-31T14:13:01;27.80;1.00
26164;DHT22;13914;48.178;11.716;2023-07-31T14:15:27;27.80;1.00
26164;DHT22;13914;48.178;11.716;2023-07-31T14:17:53;27.80;1.00
26164;DHT22;13914;48.178;11.716;2023-07-31T14:20:19;27.80;1.00
26164;DHT22;13914;48.178;11.716;2023-07-31T14:22:45;27.80;1.00
26164;DHT22;13914;48.178;11.716;2023-07-31T14:25:10;27.70;1.20
26164;DHT22;13914;48.178;11.716;2023-07-31T14:27:36;27.70;1.00
26164;DHT22;13914;48.178;11.716;2023-07-31T14:30:02;27.60;1.00
26164;DHT22;13914;48.178;11.716;2023-07-31T14:32:28;27.60;1.00
26164;DHT22;13914;48.178;11.716;2023-07-31T14:34:54;27.50;1.00
26164;DHT22;13914;48.178;11.716;2023-07-31T14:37:20;27.50;1.00
26164;DHT22;13914;48.178;11.716;2023-07-31T14:39:46;27.50;1.00
26164;DHT22;13914;48.178;11.716;2023-07-31T14:42:11;27.30;1.00
26164;DHT22;13914;48.178;11.716;2023-07-31T14:44:37;27.30;1.00
26164;DHT22;13914;48.178;11.716;2023-07-31T14:47:03;27.30;1.00
26164;DHT22;13914;48.178;11.716;2023-07-31T14:49:29;27.20;1.00
26164;DHT22;13914;48.178;11.716;2023-07-31T14:51:54;27.20;1.00
26164;DHT22;13914;48.178;11.716;2023-07-31T14:54:20;27.20;1.00
26164;DHT22;13914;48.178;11.716;2023-07-31T14:56:46;27.10;1.00
26164;DHT22;13914;48.178;11.716;2023-07-31T14:59:12;27.10;1.00
26164;DHT22;13914;48.178;11.716;2023-07-31T15:01:37;27.10;1.00
26164;DHT22;13914;48.178;11.716;2023-07-31T15:04:03;27.10;1.00
26164;DHT22;13914;48.178;11.716;2023-07-31T15:06:29;27.10;1.00
26164;DHT22;13914;48.178;11.716;2023-07-31T15:08:55;27.10;1.00
26164;DHT22;13914;48.178;11.716;2023-07-31T15:11:20;27.00;1.00
26164;DHT22;13914;48.178;11.716;2023-07-31T15:13:46;27.00;1.00
26164;DHT22;13914;48.178;11.716;2023-07-31T15:16:12;27.00;1.00
26164;DHT22;13914;48.178;11.716;2023-07-31T15:18:38;27.00;1.00
26164;DHT22;13914;48.178;11.716;2023-07-31T15:21:03;27.00;1.00
26164;DHT22;13914;48.178;11.716;2023-07-31T15:23:31;26.90;1.00
26164;DHT22;13914;48.178;11.716;2023-07-31T15:25:56;26.90;1.00
26164;DHT22;13914;48.178;11.716;2023-07-31T15:28:22;26.90;1.00
26164;DHT22;13914;48.178;11.716;2023-07-31T15:30:48;26.80;1.00
26164;DHT22;13914;48.178;11.716;2023-07-31T15:33:13;26.80;1.00
26164;DHT22;13914;48.178;11.716;2023-07-31T15:35:39;26.80;1.00
26164;DHT22;13914;48.178;11.716;2023-07-31T15:38:06;26.80;1.00
26164;DHT22;13914;48.178;11.716;2023-07-31T15:40:31;26.80;1.00
26164;DHT22;13914;48.178;11.716;2023-07-31T15:42:57;26.70;1.00
26164;DHT22;13914;48.178;11.716;2023-07-31T15:45:23;26.70;1.00